sensor_id;sensor_type;location;lat;lon;timestamp;pressure;altitude;pressure_sealevel;temperature;humidity
46722;BME280;32455;43.430;23.136;2022-10-16T00:00:27;98855.28;;;6.74;100.00
46722;BME280;32455;43.430;23.136;2022-10-16T00:03:12;98870.72;;;6.64;100.00
46722;BME280;32455;43.430;23.136;2022-10-16T00:05:59;98888.13;;;6.60;100.00
46722;BME280;32455;43.430;23.136;2022-10-16T00:08:46;98890.19;;;6.50;100.00
46722;BME280;32455;43.430;23.136;2022-10-16T00:11:37;98891.22;;;6.49;100.00
46722;BME280;32455;43.430;23.136;2022-10-16T00:14:23;98882.44;;;6.40;100.00
46722;BME280;32455;43.430;23.136;2022-10-16T00:17:08;98894.16;;;6.54;100.00
46722;BME280;32455;43.430;23.136;2022-10-16T00:19:54;98883.44;;;6.39;100.00
46722;BME280;32455;43.430;23.136;2022-10-16T00:22:39;98893.06;;;6.48;100.00
46722;BME280;32455;43.430;23.136;2022-10-16T00:25:25;98892.56;;;6.45;100.00
46722;BME280;32455;43.430;23.136;2022-10-16T00:28:10;98887.91;;;6.47;100.00
46722;BME280;32455;43.430;23.136;2022-10-16T00:30:56;98898.28;;;6.65;100.00
46722;BME280;32455;43.430;23.136;2022-10-16T00:33:41;98902.13;;;6.62;100.00
46722;BME280;32455;43.430;23.136;2022-10-16T00:36:27;98900.88;;;6.50;100.00
46722;BME280;32455;43.430;23.136;2022-10-16T00:39:12;98903.50;;;6.35;100.00
46722;BME280;32455;43.430;23.136;2022-10-16T00:41:58;98904.31;;;6.36;100.00
46722;BME280;32455;43.430;23.136;2022-10-16T00:44:52;98895.09;;;6.15;100.00
46722;BME280;32455;43.430;23.136;2022-10-16T00:47:44;98890.50;;;6.32;100.00
46722;BME280;32455;43.430;23.136;2022-10-16T00:50:42;98902.78;;;6.41;100.00
46722;BME280;32455;43.430;23.136;2022-10-16T00:53:29;98878.47;;;6.36;100.00
46722;BME280;32455;43.430;23.136;2022-10-16T00:56:18;98898.78;;;6.37;100.00
46722;BME280;32455;43.430;23.136;2022-10-16T00:59:36;98866.69;;;5.99;100.00
46722;BME280;32455;43.430;23.136;2022-10-16T01:02:22;98877.69;;;6.05;100.00
46722;BME280;32455;43.430;23.136;2022-10-16T01:05:10;98847.00;;;5.69;100.00
46722;BME280;32455;43.430;23.136;2022-10-16T01:08:17;98836.53;;;5.60;100.00
46722;BME280;32455;43.430;23.136;2022-10-16T01:11:22;98834.28;;;5.80;100.00
46722;BME280;32455;43.430;23.136;2022-10-16T01:14:26;98851.66;;;6.07;100.00
46722;BME280;32455;43.430;23.136;2022-10-16T01:17:34;98914.13;;;6.43;100.00
46722;BME280;32455;43.430;23.136;2022-10-16T01:20:31;98901.94;;;6.18;100.00
46722;BME280;32455;43.430;23.136;2022-10-16T01:29:22;98907.63;;;6.38;100.00
46722;BME280;32455;43.430;23.136;2022-10-16T01:32:22;98905.72;;;6.23;100.00
46722;BME280;32455;43.430;23.136;2022-10-16T01:35:18;98897.81;;;6.07;100.00
46722;BME280;32455;43.430;23.136;2022-10-16T01:38:14;98892.00;;;6.03;100.00
46722;BME280;32455;43.430;23.136;2022-10-16T01:41:08;98908.69;;;6.06;100.00
46722;BME280;32455;43.430;23.136;2022-10-16T01:44:02;98897.88;;;5.99;100.00
46722;BME280;32455;43.430;23.136;2022-10-16T01:46:52;98901.66;;;6.13;100.00
46722;BME280;32455;43.430;23.136;2022-10-16T01:49:38;98901.72;;;6.27;100.00
46722;BME280;32455;43.430;23.136;2022-10-16T01:52:27;98907.63;;;6.38;100.00
46722;BME280;32455;43.430;23.136;2022-10-16T01:55:17;98916.84;;;6.35;100.00
46722;BME280;32455;43.430;23.136;2022-10-16T01:58:07;98899.91;;;6.20;100.00
46722;BME280;32455;43.430;23.136;2022-10-16T02:00:54;98898.84;;;6.06;100.00
46722;BME280;32455;43.430;23.136;2022-10-16T02:03:41;98915.28;;;6.18;100.00
46722;BME280;32455;43.430;23.136;2022-10-16T02:06:29;98911.16;;;6.07;100.00
46722;BME280;32455;43.430;23.136;2022-10-16T02:09:15;98915.09;;;6.19;100.00
46722;BME280;32455;43.430;23.136;2022-10-16T02:12:14;98920.44;;;6.19;100.00
46722;BME280;32455;43.430;23.136;2022-10-16T02:15:02;98931.00;;;6.13;100.00
46722;BME280;32455;43.430;23.136;2022-10-16T02:17:47;98936.72;;;6.01;100.00
46722;BME280;32455;43.430;23.136;2022-10-16T02:20:48;98938.22;;;6.04;100.00
46722;BME280;32455;43.430;23.136;2022-10-16T02:23:58;98935.75;;;5.94;100.00
46722;BME280;32455;43.430;23.136;2022-10-16T02:26:51;98942.75;;;5.87;100.00
46722;BME280;32455;43.430;23.136;2022-10-16T02:29:43;98940.66;;;5.74;100.00
46722;BME280;32455;43.430;23.136;2022-10-16T02:32:34;98935.97;;;5.76;100.00
46722;BME280;32455;43.430;23.136;2022-10-16T02:35:21;98934.91;;;5.86;100.00
46722;BME280;32455;43.430;23.136;2022-10-16T02:38:08;98933.81;;;5.72;100.00
46722;BME280;32455;43.430;23.136;2022-10-16T02:40:54;98923.81;;;5.74;100.00
46722;BME280;32455;43.430;23.136;2022-10-16T02:43:40;98933.63;;;5.73;100.00
46722;BME280;32455;43.430;23.136;2022-10-16T02:46:25;98925.81;;;5.72;100.00
46722;BME280;32455;43.430;23.136;2022-10-16T02:49:09;98935.84;;;5.70;100.00
46722;BME280;32455;43.430;23.136;2022-10-16T02:51:55;98939.34;;;5.62;100.00
46722;BME280;32455;43.430;23.136;2022-10-16T02:54:40;98944.66;;;5.70;100.00
46722;BME280;32455;43.430;23.136;2022-10-16T02:57:25;98956.00;;;5.64;100.00
46722;BME280;32455;43.430;23.136;2022-10-16T03:00:13;98951.97;;;5.68;100.00
46722;BME280;32455;43.430;23.136;2022-10-16T03:02:59;98960.38;;;5.57;100.00
46722;BME280;32455;43.430;23.136;2022-10-16T03:05:44;98961.03;;;5.59;100.00
46722;BME280;32455;43.430;23.136;2022-10-16T03:08:33;98952.91;;;5.44;100.00
46722;BME280;32455;43.430;23.136;2022-10-16T03:11:18;98955.38;;;5.54;100.00
46722;BME280;32455;43.430;23.136;2022-10-16T03:14:04;98956.50;;;5.68;100.00
46722;BME280;32455;43.430;23.136;2022-10-16T03:16:49;98944.69;;;5.62;100.00
46722;BME280;32455;43.430;23.136;2022-10-16T03:19:34;98952.34;;;5.65;100.00
46722;BME280;32455;43.430;23.136;2022-10-16T03:22:20;98954.00;;;5.66;100.00
46722;BME280;32455;43.430;23.136;2022-10-16T03:25:06;98954.81;;;5.75;100.00
46722;BME280;32455;43.430;23.136;2022-10-16T03:27:52;98970.03;;;5.58;100.00
46722;BME280;32455;43.430;23.136;2022-10-16T03:30:37;98973.50;;;5.67;100.00
46722;BME280;32455;43.430;23.136;2022-10-16T03:33:24;98978.16;;;5.65;100.00
46722;BME280;32455;43.430;23.136;2022-10-16T03:36:10;98976.69;;;5.62;100.00
46722;BME280;32455;43.430;23.136;2022-10-16T03:38:55;98977.69;;;5.61;100.00
46722;BME280;32455;43.430;23.136;2022-10-16T03:41:40;98978.66;;;5.68;100.00
46722;BME280;32455;43.430;23.136;2022-10-16T03:44:25;98963.38;;;5.54;100.00
46722;BME280;32455;43.430;23.136;2022-10-16T03:47:11;98970.88;;;5.42;100.00
46722;BME280;32455;43.430;23.136;2022-10-16T03:49:56;98973.06;;;5.39;100.00
46722;BME280;32455;43.430;23.136;2022-10-16T03:52:42;98969.22;;;5.41;100.00
46722;BME280;32455;43.430;23.136;2022-10-16T03:55:27;98981.03;;;5.55;100.00
46722;BME280;32455;43.430;23.136;2022-10-16T03:58:13;98979.06;;;5.49;100.00
46722;BME280;32455;43.430;23.136;2022-10-16T04:00:59;98980.84;;;5.57;100.00
46722;BME280;32455;43.430;23.136;2022-10-16T04:03:44;98996.50;;;5.60;100.00
46722;BME280;32455;43.430;23.136;2022-10-16T04:06:30;98995.69;;;5.43;100.00
46722;BME280;32455;43.430;23.136;2022-10-16T04:09:16;98978.91;;;5.18;100.00
46722;BME280;32455;43.430;23.136;2022-10-16T04:12:01;98997.41;;;5.19;100.00
46722;BME280;32455;43.430;23.136;2022-10-16T04:14:46;98999.25;;;5.19;100.00
46722;BME280;32455;43.430;23.136;2022-10-16T04:17:31;99004.41;;;5.28;100.00
46722;BME280;32455;43.430;23.136;2022-10-16T04:20:17;98999.72;;;5.31;100.00
46722;BME280;32455;43.430;23.136;2022-10-16T04:23:03;99007.38;;;5.34;100.00
46722;BME280;32455;43.430;23.136;2022-10-16T04:25:48;99009.41;;;5.15;100.00
46722;BME280;32455;43.430;23.136;2022-10-16T04:28:33;99002.75;;;5.11;100.00
46722;BME280;32455;43.430;23.136;2022-10-16T04:31:18;99000.41;;;5.08;100.00
46722;BME280;32455;43.430;23.136;2022-10-16T04:34:03;99017.06;;;5.10;100.00
46722;BME280;32455;43.430;23.136;2022-10-16T04:36:49;99006.06;;;5.05;100.00
46722;BME280;32455;43.430;23.136;2022-10-16T04:39:34;99010.06;;;5.09;100.00
46722;BME280;32455;43.430;23.136;2022-10-16T04:42:20;99012.56;;;5.11;100.00
46722;BME280;32455;43.430;23.136;2022-10-16T04:45:06;98999.75;;;4.98;100.00
46722;BME280;32455;43.430;23.136;2022-10-16T04:47:52;99007.88;;;4.96;100.00
46722;BME280;32455;43.430;23.136;2022-10-16T04:50:38;99021.22;;;5.05;100.00
46722;BME280;32455;43.430;23.136;2022-10-16T04:53:23;99008.06;;;5.03;100.00
46722;BME280;32455;43.430;23.136;2022-10-16T04:56:09;99013.72;;;5.00;100.00
46722;BME280;32455;43.430;23.136;2022-10-16T04:58:55;99010.06;;;5.09;100.00
46722;BME280;32455;43.430;23.136;2022-10-16T05:01:40;99010.06;;;5.01;100.00
46722;BME280;32455;43.430;23.136;2022-10-16T05:04:25;99010.09;;;4.93;100.00
46722;BME280;32455;43.430;23.136;2022-10-16T05:07:11;99003.41;;;5.05;100.00
46722;BME280;32455;43.430;23.136;2022-10-16T05:09:56;99019.06;;;5.08;100.00
46722;BME280;32455;43.430;23.136;2022-10-16T05:12:41;99022.53;;;5.25;100.00
46722;BME280;32455;43.430;23.136;2022-10-16T05:15:26;99022.72;;;5.40;100.00
46722;BME280;32455;43.430;23.136;2022-10-16T05:18:11;99027.69;;;5.51;100.00
46722;BME280;32455;43.430;23.136;2022-10-16T05:20:56;99038.19;;;5.44;100.00
46722;BME280;32455;43.430;23.136;2022-10-16T05:23:42;99038.03;;;5.30;100.00
46722;BME280;32455;43.430;23.136;2022-10-16T05:26:28;99055.34;;;5.42;100.00
46722;BME280;32455;43.430;23.136;2022-10-16T05:29:14;99059.00;;;5.65;100.00
46722;BME280;32455;43.430;23.136;2022-10-16T05:32:00;99044.81;;;5.65;100.00
46722;BME280;32455;43.430;23.136;2022-10-16T05:34:46;99050.59;;;5.85;100.00
46722;BME280;32455;43.430;23.136;2022-10-16T05:37:31;99048.25;;;5.98;100.00
46722;BME280;32455;43.430;23.136;2022-10-16T05:40:17;99064.00;;;6.24;100.00
46722;BME280;32455;43.430;23.136;2022-10-16T05:43:03;99056.19;;;6.22;100.00
46722;BME280;32455;43.430;23.136;2022-10-16T05:45:59;99062.81;;;6.35;100.00
46722;BME280;32455;43.430;23.136;2022-10-16T05:48:45;99064.25;;;6.45;100.00
46722;BME280;32455;43.430;23.136;2022-10-16T05:51:31;99076.44;;;6.48;100.00
46722;BME280;32455;43.430;23.136;2022-10-16T05:54:17;99066.53;;;6.57;100.00
46722;BME280;32455;43.430;23.136;2022-10-16T05:57:02;99075.34;;;6.65;100.00
46722;BME280;32455;43.430;23.136;2022-10-16T05:59:50;99076.31;;;6.72;100.00
46722;BME280;32455;43.430;23.136;2022-10-16T06:02:36;99074.53;;;6.88;100.00
46722;BME280;32455;43.430;23.136;2022-10-16T06:05:21;99093.97;;;7.05;100.00
46722;BME280;32455;43.430;23.136;2022-10-16T06:08:07;99097.72;;;7.18;100.00
46722;BME280;32455;43.430;23.136;2022-10-16T06:11:03;99081.13;;;7.23;100.00
46722;BME280;32455;43.430;23.136;2022-10-16T06:13:51;99100.41;;;7.41;100.00
46722;BME280;32455;43.430;23.136;2022-10-16T06:16:37;99096.16;;;7.47;100.00
46722;BME280;32455;43.430;23.136;2022-10-16T06:19:23;99107.44;;;7.57;100.00
46722;BME280;32455;43.430;23.136;2022-10-16T06:22:07;99115.31;;;7.73;100.00
46722;BME280;32455;43.430;23.136;2022-10-16T06:24:52;99113.13;;;7.77;100.00
46722;BME280;32455;43.430;23.136;2022-10-16T06:27:41;99102.28;;;7.70;100.00
46722;BME280;32455;43.430;23.136;2022-10-16T06:30:26;99121.72;;;7.87;100.00
46722;BME280;32455;43.430;23.136;2022-10-16T06:33:12;99123.50;;;8.10;100.00
46722;BME280;32455;43.430;23.136;2022-10-16T06:36:07;99108.19;;;8.33;100.00
46722;BME280;32455;43.430;23.136;2022-10-16T06:38:53;99119.28;;;8.60;100.00
46722;BME280;32455;43.430;23.136;2022-10-16T06:41:39;99112.88;;;8.75;100.00
46722;BME280;32455;43.430;23.136;2022-10-16T06:44:24;99118.19;;;8.90;100.00
46722;BME280;32455;43.430;23.136;2022-10-16T06:47:10;99124.13;;;9.22;100.00
46722;BME280;32455;43.430;23.136;2022-10-16T06:49:55;99110.41;;;9.32;100.00
46722;BME280;32455;43.430;23.136;2022-10-16T06:52:40;99126.38;;;9.40;100.00
46722;BME280;32455;43.430;23.136;2022-10-16T06:55:25;99134.63;;;9.60;100.00
46722;BME280;32455;43.430;23.136;2022-10-16T06:58:11;99134.03;;;9.64;100.00
46722;BME280;32455;43.430;23.136;2022-10-16T07:00:56;99140.25;;;9.93;100.00
46722;BME280;32455;43.430;23.136;2022-10-16T07:03:43;99154.84;;;10.12;100.00
46722;BME280;32455;43.430;23.136;2022-10-16T07:06:31;99143.97;;;10.20;100.00
46722;BME280;32455;43.430;23.136;2022-10-16T07:09:17;99151.34;;;10.39;100.00
46722;BME280;32455;43.430;23.136;2022-10-16T07:12:03;99144.38;;;10.51;100.00
46722;BME280;32455;43.430;23.136;2022-10-16T07:14:48;99146.28;;;10.58;100.00
46722;BME280;32455;43.430;23.136;2022-10-16T07:17:37;99160.06;;;10.48;100.00
46722;BME280;32455;43.430;23.136;2022-10-16T07:20:22;99158.59;;;10.80;100.00
46722;BME280;32455;43.430;23.136;2022-10-16T07:23:08;99144.41;;;10.99;100.00
46722;BME280;32455;43.430;23.136;2022-10-16T07:25:56;99160.75;;;11.04;100.00
46722;BME280;32455;43.430;23.136;2022-10-16T07:28:43;99169.75;;;11.32;100.00
46722;BME280;32455;43.430;23.136;2022-10-16T07:31:28;99157.53;;;11.29;100.00
46722;BME280;32455;43.430;23.136;2022-10-16T07:34:17;99159.03;;;11.45;100.00
46722;BME280;32455;43.430;23.136;2022-10-16T07:37:02;99165.47;;;11.57;100.00
46722;BME280;32455;43.430;23.136;2022-10-16T07:39:48;99164.22;;;11.73;100.00
46722;BME280;32455;43.430;23.136;2022-10-16T07:42:33;99166.31;;;11.77;100.00
46722;BME280;32455;43.430;23.136;2022-10-16T07:45:19;99168.44;;;11.89;99.93
46722;BME280;32455;43.430;23.136;2022-10-16T07:48:05;99166.16;;;11.92;100.00
46722;BME280;32455;43.430;23.136;2022-10-16T07:50:50;99167.38;;;12.10;98.66
46722;BME280;32455;43.430;23.136;2022-10-16T07:53:37;99163.47;;;12.12;97.85
46722;BME280;32455;43.430;23.136;2022-10-16T07:56:22;99166.97;;;11.93;96.86
46722;BME280;32455;43.430;23.136;2022-10-16T07:59:08;99167.56;;;12.28;96.75
46722;BME280;32455;43.430;23.136;2022-10-16T08:01:53;99175.19;;;12.64;94.69
46722;BME280;32455;43.430;23.136;2022-10-16T08:04:38;99162.53;;;12.65;95.67
46722;BME280;32455;43.430;23.136;2022-10-16T08:07:23;99176.84;;;12.59;95.38
46722;BME280;32455;43.430;23.136;2022-10-16T08:10:19;99179.75;;;12.70;95.30
46722;BME280;32455;43.430;23.136;2022-10-16T08:13:04;99181.56;;;12.90;93.08
46722;BME280;32455;43.430;23.136;2022-10-16T08:15:49;99167.84;;;12.91;92.35
46722;BME280;32455;43.430;23.136;2022-10-16T08:18:38;99181.69;;;13.01;91.82
46722;BME280;32455;43.430;23.136;2022-10-16T08:21:23;99173.25;;;12.91;91.60
46722;BME280;32455;43.430;23.136;2022-10-16T08:24:08;99170.94;;;12.95;92.31
46722;BME280;32455;43.430;23.136;2022-10-16T08:26:54;99186.25;;;13.08;90.45
46722;BME280;32455;43.430;23.136;2022-10-16T08:29:39;99175.81;;;13.18;87.41
46722;BME280;32455;43.430;23.136;2022-10-16T08:32:25;99180.53;;;13.36;87.09
46722;BME280;32455;43.430;23.136;2022-10-16T08:35:11;99184.03;;;13.43;85.22
46722;BME280;32455;43.430;23.136;2022-10-16T08:38:00;99197.22;;;13.64;84.03
46722;BME280;32455;43.430;23.136;2022-10-16T08:40:45;99185.91;;;13.74;84.04
46722;BME280;32455;43.430;23.136;2022-10-16T08:43:39;99194.47;;;13.71;82.31
46722;BME280;32455;43.430;23.136;2022-10-16T08:47:22;99192.81;;;13.70;83.24
46722;BME280;32455;43.430;23.136;2022-10-16T08:50:11;99201.09;;;13.75;80.80
46722;BME280;32455;43.430;23.136;2022-10-16T08:52:59;99197.19;;;13.71;80.67
46722;BME280;32455;43.430;23.136;2022-10-16T08:55:55;99189.28;;;13.69;80.94
46722;BME280;32455;43.430;23.136;2022-10-16T08:58:41;99195.25;;;13.78;80.51
46722;BME280;32455;43.430;23.136;2022-10-16T09:01:49;99210.63;;;14.09;79.84
46722;BME280;32455;43.430;23.136;2022-10-16T09:17:59;99213.50;;;14.39;70.22
46722;BME280;32455;43.430;23.136;2022-10-16T09:20:55;99217.19;;;14.45;68.87
46722;BME280;32455;43.430;23.136;2022-10-16T09:23:42;99211.66;;;14.33;68.59
46722;BME280;32455;43.430;23.136;2022-10-16T09:26:28;99206.59;;;14.43;70.08
46722;BME280;32455;43.430;23.136;2022-10-16T09:29:18;99216.19;;;14.39;67.58
46722;BME280;32455;43.430;23.136;2022-10-16T09:32:13;99200.72;;;14.53;68.15
46722;BME280;32455;43.430;23.136;2022-10-16T09:34:59;99210.63;;;14.59;69.28
46722;BME280;32455;43.430;23.136;2022-10-16T09:37:48;99204.81;;;14.56;70.14
46722;BME280;32455;43.430;23.136;2022-10-16T09:40:38;99207.63;;;14.67;67.72
46722;BME280;32455;43.430;23.136;2022-10-16T09:43:45;99208.63;;;14.91;67.04
46722;BME280;32455;43.430;23.136;2022-10-16T09:46:35;99201.88;;;14.82;68.42
46722;BME280;32455;43.430;23.136;2022-10-16T09:49:26;99196.22;;;14.84;67.54
46722;BME280;32455;43.430;23.136;2022-10-16T09:52:13;99205.94;;;14.91;69.70
46722;BME280;32455;43.430;23.136;2022-10-16T09:55:22;99206.34;;;15.07;68.42
46722;BME280;32455;43.430;23.136;2022-10-16T09:58:13;99201.63;;;15.02;68.93
46722;BME280;32455;43.430;23.136;2022-10-16T10:01:01;99204.47;;;15.07;68.50
46722;BME280;32455;43.430;23.136;2022-10-16T10:03:47;99196.97;;;15.09;69.10
46722;BME280;32455;43.430;23.136;2022-10-16T10:06:40;99201.59;;;15.39;68.63
46722;BME280;32455;43.430;23.136;2022-10-16T10:09:34;99208.91;;;15.38;66.25
46722;BME280;32455;43.430;23.136;2022-10-16T10:12:24;99193.22;;;15.40;67.44
46722;BME280;32455;43.430;23.136;2022-10-16T10:15:14;99196.69;;;15.47;65.03
46722;BME280;32455;43.430;23.136;2022-10-16T10:18:21;99194.25;;;15.58;64.88
46722;BME280;32455;43.430;23.136;2022-10-16T10:21:14;99182.81;;;15.56;64.46
46722;BME280;32455;43.430;23.136;2022-10-16T10:24:00;99173.59;;;15.45;64.71
46722;BME280;32455;43.430;23.136;2022-10-16T10:27:20;99181.75;;;15.57;62.95
46722;BME280;32455;43.430;23.136;2022-10-16T10:33:44;99180.56;;;15.52;62.98
46722;BME280;32455;43.430;23.136;2022-10-16T10:36:38;99173.13;;;15.48;63.92
46722;BME280;32455;43.430;23.136;2022-10-16T10:39:42;99172.78;;;15.74;61.92
46722;BME280;32455;43.430;23.136;2022-10-16T10:42:38;99171.00;;;15.68;59.85
46722;BME280;32455;43.430;23.136;2022-10-16T10:45:43;99166.41;;;15.69;60.42
46722;BME280;32455;43.430;23.136;2022-10-16T10:51:56;99162.22;;;15.85;60.56
46722;BME280;32455;43.430;23.136;2022-10-16T11:01:08;99146.44;;;16.05;58.69
46722;BME280;32455;43.430;23.136;2022-10-16T11:04:33;99153.16;;;16.02;58.62
46722;BME280;32455;43.430;23.136;2022-10-16T11:07:30;99135.59;;;16.05;59.59
46722;BME280;32455;43.430;23.136;2022-10-16T11:10:25;99147.16;;;16.24;58.40
46722;BME280;32455;43.430;23.136;2022-10-16T11:16:22;99141.50;;;16.37;57.02
46722;BME280;32455;43.430;23.136;2022-10-16T11:19:37;99146.94;;;16.37;56.33
46722;BME280;32455;43.430;23.136;2022-10-16T11:25:32;99144.81;;;16.27;56.07
46722;BME280;32455;43.430;23.136;2022-10-16T11:28:25;99148.72;;;16.32;56.03
46722;BME280;32455;43.430;23.136;2022-10-16T11:31:47;99157.53;;;16.50;53.31
46722;BME280;32455;43.430;23.136;2022-10-16T11:34:39;99143.25;;;16.43;55.39
46722;BME280;32455;43.430;23.136;2022-10-16T11:37:33;99143.16;;;16.38;55.95
46722;BME280;32455;43.430;23.136;2022-10-16T11:40:29;99131.84;;;16.41;57.62
46722;BME280;32455;43.430;23.136;2022-10-16T11:43:25;99147.03;;;16.54;57.49
46722;BME280;32455;43.430;23.136;2022-10-16T11:46:17;99146.69;;;16.62;57.28
46722;BME280;32455;43.430;23.136;2022-10-16T11:49:18;99145.38;;;16.65;55.96
46722;BME280;32455;43.430;23.136;2022-10-16T11:55:20;99154.94;;;16.67;57.83
46722;BME280;32455;43.430;23.136;2022-10-16T11:58:20;99137.47;;;16.63;57.47
46722;BME280;32455;43.430;23.136;2022-10-16T12:07:29;99131.25;;;16.74;59.02
46722;BME280;32455;43.430;23.136;2022-10-16T12:10:24;99139.84;;;16.83;59.66
46722;BME280;32455;43.430;23.136;2022-10-16T12:13:36;99140.47;;;17.02;58.67
46722;BME280;32455;43.430;23.136;2022-10-16T12:16:23;99142.13;;;17.03;57.95
46722;BME280;32455;43.430;23.136;2022-10-16T12:19:15;99137.66;;;16.97;57.88
46722;BME280;32455;43.430;23.136;2022-10-16T12:22:02;99153.13;;;16.96;57.37
46722;BME280;32455;43.430;23.136;2022-10-16T12:24:52;99132.50;;;16.84;58.48
46722;BME280;32455;43.430;23.136;2022-10-16T12:27:38;99143.81;;;16.92;58.78
46722;BME280;32455;43.430;23.136;2022-10-16T12:30:26;99148.19;;;16.93;57.77
46722;BME280;32455;43.430;23.136;2022-10-16T12:33:33;99143.69;;;16.99;57.58
46722;BME280;32455;43.430;23.136;2022-10-16T12:36:32;99147.00;;;17.01;56.95
46722;BME280;32455;43.430;23.136;2022-10-16T12:39:24;99140.00;;;17.05;57.71
46722;BME280;32455;43.430;23.136;2022-10-16T12:42:33;99131.03;;;17.05;56.21
46722;BME280;32455;43.430;23.136;2022-10-16T12:45:32;99127.97;;;17.01;56.81
46722;BME280;32455;43.430;23.136;2022-10-16T12:48:20;99137.03;;;17.07;55.40
46722;BME280;32455;43.430;23.136;2022-10-16T12:54:15;99133.56;;;16.83;56.15
46722;BME280;32455;43.430;23.136;2022-10-16T12:57:33;99129.50;;;17.09;55.05
46722;BME280;32455;43.430;23.136;2022-10-16T13:00:43;99132.53;;;17.12;55.48
46722;BME280;32455;43.430;23.136;2022-10-16T13:03:43;99134.28;;;17.18;55.40
46722;BME280;32455;43.430;23.136;2022-10-16T13:09:43;99142.81;;;17.10;55.83
46722;BME280;32455;43.430;23.136;2022-10-16T13:16:11;99151.06;;;17.15;52.44
46722;BME280;32455;43.430;23.136;2022-10-16T13:19:24;99138.03;;;17.00;52.24
46722;BME280;32455;43.430;23.136;2022-10-16T13:29:01;99150.63;;;17.07;52.82
46722;BME280;32455;43.430;23.136;2022-10-16T13:31:48;99140.84;;;17.06;52.39
46722;BME280;32455;43.430;23.136;2022-10-16T13:34:47;99156.06;;;17.07;52.50
46722;BME280;32455;43.430;23.136;2022-10-16T13:37:34;99140.91;;;16.70;55.29
46722;BME280;32455;43.430;23.136;2022-10-16T13:40:23;99149.47;;;16.91;53.47
46722;BME280;32455;43.430;23.136;2022-10-16T13:43:09;99153.81;;;17.03;52.70
46722;BME280;32455;43.430;23.136;2022-10-16T13:46:14;99159.50;;;17.02;52.45
46722;BME280;32455;43.430;23.136;2022-10-16T13:49:21;99157.41;;;16.92;51.51
46722;BME280;32455;43.430;23.136;2022-10-16T13:52:20;99155.16;;;16.89;51.22
46722;BME280;32455;43.430;23.136;2022-10-16T13:55:14;99160.94;;;16.93;51.43
46722;BME280;32455;43.430;23.136;2022-10-16T13:58:13;99162.47;;;16.89;51.09
46722;BME280;32455;43.430;23.136;2022-10-16T14:01:02;99158.59;;;16.85;51.59
46722;BME280;32455;43.430;23.136;2022-10-16T14:03:48;99150.91;;;16.70;52.36
46722;BME280;32455;43.430;23.136;2022-10-16T14:06:36;99157.78;;;16.72;52.71
46722;BME280;32455;43.430;23.136;2022-10-16T14:09:25;99157.19;;;16.59;53.15
46722;BME280;32455;43.430;23.136;2022-10-16T14:12:12;99165.53;;;16.69;52.04
46722;BME280;32455;43.430;23.136;2022-10-16T14:14:58;99158.47;;;16.56;51.80
46722;BME280;32455;43.430;23.136;2022-10-16T14:17:48;99155.28;;;16.47;52.06
46722;BME280;32455;43.430;23.136;2022-10-16T14:20:44;99157.06;;;16.42;52.01
46722;BME280;32455;43.430;23.136;2022-10-16T14:23:37;99168.75;;;16.42;51.73
46722;BME280;32455;43.430;23.136;2022-10-16T14:26:26;99166.28;;;16.29;52.77
46722;BME280;32455;43.430;23.136;2022-10-16T14:29:14;99167.44;;;16.21;53.42
46722;BME280;32455;43.430;23.136;2022-10-16T14:32:05;99144.31;;;16.07;53.16
46722;BME280;32455;43.430;23.136;2022-10-16T14:34:54;99163.66;;;15.99;54.94
46722;BME280;32455;43.430;23.136;2022-10-16T14:37:39;99156.44;;;15.81;56.12
46722;BME280;32455;43.430;23.136;2022-10-16T14:40:34;99158.03;;;15.70;56.79
46722;BME280;32455;43.430;23.136;2022-10-16T14:43:40;99161.84;;;15.51;58.38
46722;BME280;32455;43.430;23.136;2022-10-16T14:46:35;99159.28;;;15.26;58.71
46722;BME280;32455;43.430;23.136;2022-10-16T14:49:22;99167.94;;;15.16;59.93
46722;BME280;32455;43.430;23.136;2022-10-16T14:52:12;99171.84;;;15.02;61.29
46722;BME280;32455;43.430;23.136;2022-10-16T14:54:58;99168.53;;;14.82;63.20
46722;BME280;32455;43.430;23.136;2022-10-16T14:57:44;99180.38;;;14.69;63.90
46722;BME280;32455;43.430;23.136;2022-10-16T15:00:29;99183.94;;;14.63;64.32
46722;BME280;32455;43.430;23.136;2022-10-16T15:03:15;99186.00;;;14.42;65.31
46722;BME280;32455;43.430;23.136;2022-10-16T15:06:00;99176.25;;;14.16;66.40
46722;BME280;32455;43.430;23.136;2022-10-16T15:08:45;99178.13;;;13.91;67.85
46722;BME280;32455;43.430;23.136;2022-10-16T15:11:32;99184.94;;;13.68;69.00
46722;BME280;32455;43.430;23.136;2022-10-16T15:14:18;99175.63;;;13.26;70.45
46722;BME280;32455;43.430;23.136;2022-10-16T15:17:03;99185.63;;;13.12;72.75
46722;BME280;32455;43.430;23.136;2022-10-16T15:19:48;99182.16;;;12.92;73.60
46722;BME280;32455;43.430;23.136;2022-10-16T15:22:33;99196.94;;;12.76;75.42
46722;BME280;32455;43.430;23.136;2022-10-16T15:25:37;99191.41;;;12.51;76.50
46722;BME280;32455;43.430;23.136;2022-10-16T15:28:27;99183.94;;;12.33;77.41
46722;BME280;32455;43.430;23.136;2022-10-16T15:31:13;99200.13;;;12.26;77.87
46722;BME280;32455;43.430;23.136;2022-10-16T15:33:59;99196.41;;;12.14;78.38
46722;BME280;32455;43.430;23.136;2022-10-16T15:36:49;99211.94;;;12.06;79.49
46722;BME280;32455;43.430;23.136;2022-10-16T15:39:35;99208.44;;;12.05;80.08
46722;BME280;32455;43.430;23.136;2022-10-16T15:42:21;99210.50;;;11.96;80.36
46722;BME280;32455;43.430;23.136;2022-10-16T15:45:06;99212.13;;;11.84;80.76
46722;BME280;32455;43.430;23.136;2022-10-16T15:47:51;99204.41;;;11.61;81.54
46722;BME280;32455;43.430;23.136;2022-10-16T15:50:37;99215.34;;;11.46;82.33
46722;BME280;32455;43.430;23.136;2022-10-16T15:53:23;99222.94;;;11.29;82.50